Airfield :
LOGIN :

Register | Disclaimer

   EN    FR    IT 

 










Legend :    VFR   Marginal VFR   IFR   Intensive IFR   Very Intensive IFR
Visi :
Ceiling :
>= 8 km
>= 3000ft
5 to 8 km
1000 to 3000 ft
1500m to 5 km
500 to 1000 ft
800 to 1500m
200 to 500 ft
< 800m
< 200 ft
Symbols :   Thunderstorms  Fog  Heavy snow  Heavy precipitations  Wind > 20 kt
SIGMETs :     Misc.  Thunderstorms  Icing  Turbulence  Mountain Waves  Volcanic Ashes







- Airport Elevation : 49 ft
- IATA code : SEN
- Download approach charts


EGMC - Southend

CURRENT METAR :
  • 250150Z 29002KT CAVOK 19/16 Q1017

EXPIRED METARs :
  • 250120Z VRB02KT CAVOK 19/16 Q1017
  • 250050Z 33002KT CAVOK 19/16 Q1017
  • 250020Z 33003KT CAVOK 19/17 Q1017
  • 242350Z 28002KT CAVOK 19/17 Q1017
  • 242320Z 33004KT CAVOK 19/17 Q1017

TAF TAF EGMC
Valid from the 25 at 00:00 until the 25 at 09:00 UTC


242300Z 2500/2509 VRB04KT 9999 FEW045
PROB40
TEMPO 2500/2507 2000 +TSRA BKN005 BKN045CB
PROB40
TEMPO 2507/2509 4000 SHRA BKN008
No reported NOTAMs for that airfield.
1 SIGMET reported for the London FIR (EGTT) :
 
Embedded thunderstorms
EGTT SIGMET 01 VALID 250100/250500 EGRR
EGTT LONDON FIR EMBD TS FCST WI N5130 W00100 - N5135 E00100 - N5030 E00101 - N5000 W00015 - N5000 W00200 - N5130 W00100 TOP FL360 MOV NNE 20KT NC=



MET'MAP, your aeronautical weather chart ! - Copyright ORBIFLY December 2007 - Disclaimer

ORBIFLY MET'MAP TEAM :

Programming & Development : Alexandra Zaïnal
Concept & Development : Baudouin d'Aumeries
Co-Development & Prog : Marc-Olivier Méhu
Technical & hardware support : Manuel Goepfert

Contact : metmap@orbifly.com




SOURCES & CREDITS :

   NOAA